createdAt,value
2018-06-09T00:01:51.133Z,96581.41
2018-06-09T00:06:45.711Z,96579.34
2018-06-09T00:11:40.112Z,96583.11
2018-06-09T00:16:34.545Z,96594.55
2018-06-09T00:21:28.968Z,96597.19
2018-06-09T00:26:23.408Z,96591.04
2018-06-09T00:31:17.819Z,96595.55
2018-06-09T00:36:12.068Z,96595.83
2018-06-09T00:41:06.532Z,96590.74
2018-06-09T00:46:00.968Z,96604.16
2018-06-09T00:50:55.342Z,96592.20
2018-06-09T00:55:49.774Z,96592.99
2018-06-09T01:00:44.203Z,96584.54
2018-06-09T01:05:38.595Z,96581.05
2018-06-09T01:10:32.989Z,96576.80
2018-06-09T01:15:27.420Z,96580.86
2018-06-09T01:20:21.860Z,96578.83
2018-06-09T01:25:16.271Z,96582.84
2018-06-09T01:30:10.711Z,96579.34
2018-06-09T01:35:05.365Z,96578.73
2018-06-09T01:39:59.796Z,96574.54
2018-06-09T01:44:54.184Z,96574.88
2018-06-09T01:49:48.615Z,96577.89
2018-06-09T01:54:43.013Z,96588.00
2018-06-09T01:59:37.424Z,96587.50
2018-06-09T02:04:31.848Z,96587.21
2018-06-09T02:09:26.296Z,96588.54
2018-06-09T02:14:20.700Z,96592.52
2018-06-09T02:19:14.870Z,96588.25
2018-06-09T02:24:09.344Z,96589.01
2018-06-09T02:29:03.881Z,96587.41
2018-06-09T02:33:58.360Z,96576.28
2018-06-09T02:38:52.764Z,96572.34
2018-06-09T02:43:47.217Z,96564.39
2018-06-09T02:48:41.651Z,96561.78
2018-06-09T02:53:36.068Z,96558.08
2018-06-09T02:58:30.510Z,96564.20
2018-06-09T03:03:24.919Z,96559.69
2018-06-09T03:08:19.349Z,96561.81
2018-06-09T03:13:13.769Z,96572.68
2018-06-09T03:18:08.192Z,96583.81
2018-06-09T03:23:02.729Z,96582.50
2018-06-09T03:27:57.136Z,96593.09
2018-06-09T03:32:51.556Z,96592.81
2018-06-09T03:37:45.965Z,96606.56
2018-06-09T03:42:40.367Z,96604.64
2018-06-09T03:47:34.802Z,96609.63
2018-06-09T03:52:29.227Z,96620.44
2018-06-09T03:57:23.624Z,96625.49
2018-06-09T04:02:18.233Z,96621.56
2018-06-09T04:07:12.620Z,96629.27
2018-06-09T04:12:07.041Z,96630.84
2018-06-09T04:17:01.425Z,96645.06
2018-06-09T04:21:55.845Z,96652.09
2018-06-09T04:26:50.220Z,96651.71
2018-06-09T04:31:44.624Z,96666.16
2018-06-09T04:36:38.768Z,96671.48
2018-06-09T04:41:34.084Z,96666.66
2018-06-09T04:46:28.500Z,96668.14
2018-06-09T04:51:22.933Z,96678.72
2018-06-09T04:56:17.404Z,96669.59
2018-06-09T05:01:11.812Z,96661.45
2018-06-09T05:06:07.756Z,96656.34
2018-06-09T05:11:02.232Z,96652.88
2018-06-09T05:15:56.650Z,96651.39
2018-06-09T05:20:51.082Z,96645.42
2018-06-09T05:25:45.529Z,96642.02
2018-06-09T05:30:39.961Z,96646.95
2018-06-09T05:35:34.409Z,96644.84
2018-06-09T05:40:28.796Z,96629.14
2018-06-09T05:45:23.225Z,96628.89
2018-06-09T05:50:17.817Z,96630.34
2018-06-09T05:55:12.382Z,96633.94
2018-06-09T06:00:07.230Z,96642.95
2018-06-09T06:05:01.660Z,96641.17
2018-06-09T06:09:56.075Z,96658.53
2018-06-09T06:14:50.509Z,96662.17
2018-06-09T06:19:44.925Z,96668.30
2018-06-09T06:24:39.388Z,96670.26
2018-06-09T06:29:33.882Z,96679.20
2018-06-09T06:34:28.368Z,96671.69
2018-06-09T06:39:22.820Z,96671.28
2018-06-09T06:44:17.296Z,96675.21
2018-06-09T06:49:11.748Z,96671.28
2018-06-09T06:54:06.263Z,96666.94
2018-06-09T06:59:00.726Z,96672.45
2018-06-09T07:03:55.175Z,96679.23
2018-06-09T07:08:49.604Z,96673.84
2018-06-09T07:13:44.065Z,96668.80
2018-06-09T07:18:38.492Z,96662.04
2018-06-09T07:23:32.907Z,96657.02
2018-06-09T07:28:27.311Z,96657.38
2018-06-09T07:33:21.824Z,96660.25
2018-06-09T07:38:16.270Z,96649.03
2018-06-09T07:43:10.715Z,96654.14
2018-06-09T07:48:05.234Z,96644.59
2018-06-09T07:52:59.736Z,96651.77
2018-06-09T07:57:54.167Z,96648.27
2018-06-09T08:02:48.619Z,96654.09
2018-06-09T08:07:43.073Z,96657.58
2018-06-09T08:12:37.528Z,96650.25
2018-06-09T08:17:31.955Z,96652.65
2018-06-09T08:22:26.390Z,96648.18
2018-06-09T08:27:20.845Z,96644.48
2018-06-09T08:32:15.304Z,96641.05
2018-06-09T08:37:09.729Z,96629.77
2018-06-09T08:42:04.212Z,96634.84
2018-06-09T08:46:58.614Z,96637.24
2018-06-09T08:51:53.021Z,96628.23
2018-06-09T08:56:47.469Z,96633.03
2018-06-09T09:01:41.943Z,96642.86
2018-06-09T09:06:36.378Z,96639.27
2018-06-09T09:11:30.841Z,96633.03
2018-06-09T09:16:25.422Z,96640.80
2018-06-09T09:21:19.832Z,96641.47
2018-06-09T09:26:14.292Z,96649.36
2018-06-09T09:31:08.672Z,96644.36
2018-06-09T09:36:03.111Z,96650.77
2018-06-09T09:40:57.525Z,96649.09
2018-06-09T09:45:51.940Z,96645.25
2018-06-09T09:50:46.412Z,96632.91
2018-06-09T09:55:40.842Z,96633.93
2018-06-09T10:00:37.315Z,96628.14
2018-06-09T10:05:31.771Z,96623.32
2018-06-09T10:10:26.212Z,96617.45
2018-06-09T10:15:20.663Z,96608.34
2018-06-09T10:20:15.101Z,96601.23
2018-06-09T10:25:09.549Z,96603.84
2018-06-09T10:30:04.029Z,96592.37
2018-06-09T10:34:58.445Z,96596.42
2018-06-09T10:39:52.846Z,96591.71
2018-06-09T10:44:47.283Z,96584.75
2018-06-09T10:49:41.722Z,96579.03
2018-06-09T10:54:36.216Z,96573.50
2018-06-09T10:59:30.660Z,96571.60
2018-06-09T11:04:25.161Z,96564.08
2018-06-09T11:09:19.571Z,96552.66
2018-06-09T11:14:13.990Z,96546.66
2018-06-09T11:19:08.381Z,96535.59
2018-06-09T11:24:02.827Z,96522.38
2018-06-09T11:28:57.316Z,96518.19
2018-06-09T11:33:51.458Z,96506.37
2018-06-09T11:38:45.884Z,96500.69
2018-06-09T11:43:40.295Z,96499.53
2018-06-09T11:48:34.692Z,96496.42
2018-06-09T11:53:29.111Z,96485.71
2018-06-09T11:58:23.525Z,96484.64
2018-06-09T12:03:17.996Z,96485.19
2018-06-09T12:08:12.408Z,96478.71
2018-06-09T12:13:07.105Z,96476.38
2018-06-09T12:18:01.543Z,96478.81
2018-06-09T12:22:56.034Z,96481.48
2018-06-09T12:27:50.482Z,96479.98
2018-06-09T12:32:45.957Z,96484.95
2018-06-09T12:37:40.358Z,96474.44
2018-06-09T12:42:34.822Z,96480.59
2018-06-09T12:47:29.288Z,96477.23
2018-06-09T12:52:23.792Z,96469.88
2018-06-09T12:57:18.218Z,96467.39
2018-06-09T13:02:12.647Z,96462.57
2018-06-09T13:07:07.566Z,96465.13
2018-06-09T13:12:02.028Z,96460.83
2018-06-09T13:16:56.441Z,96449.70
2018-06-09T13:21:51.513Z,96440.28
2018-06-09T13:26:46.006Z,96438.12
2018-06-09T13:31:40.440Z,96431.44
2018-06-09T13:36:34.898Z,96426.98
2018-06-09T13:41:29.345Z,96414.98
2018-06-09T13:46:23.785Z,96413.25
2018-06-09T13:51:17.960Z,96413.13
2018-06-09T13:56:12.396Z,96423.00
2018-06-09T14:01:07.049Z,96421.15
2018-06-09T14:06:01.466Z,96412.25
2018-06-09T14:10:55.955Z,96423.53
2018-06-09T14:15:50.360Z,96421.16
2018-06-09T14:20:44.784Z,96411.38
2018-06-09T14:25:39.200Z,96411.16
2018-06-09T14:30:33.629Z,96419.04
2018-06-09T14:35:28.064Z,96408.38
2018-06-09T14:40:22.497Z,96403.39
2018-06-09T14:45:17.068Z,96402.56
2018-06-09T14:50:11.564Z,96394.05
2018-06-09T14:55:06.060Z,96389.09
2018-06-09T15:00:00.572Z,96385.16
2018-06-09T15:04:55.067Z,96380.44
2018-06-09T15:09:49.231Z,96377.22
2018-06-09T15:14:43.661Z,96384.02
2018-06-09T15:19:38.153Z,96388.28
2018-06-09T15:24:32.521Z,96393.14
2018-06-09T15:29:26.977Z,96392.23
2018-06-09T15:34:21.393Z,96395.52
2018-06-09T15:39:15.854Z,96391.72
2018-06-09T15:44:10.296Z,96385.36
2018-06-09T15:49:04.815Z,96373.66
2018-06-09T15:53:59.235Z,96372.50
2018-06-09T15:58:53.732Z,96358.54
2018-06-09T16:03:48.181Z,96357.80
2018-06-09T16:08:42.646Z,96353.30
2018-06-09T16:13:37.066Z,96355.89
2018-06-09T16:18:31.542Z,96354.91
2018-06-09T16:23:26.053Z,96354.38
2018-06-09T16:28:20.498Z,96369.24
2018-06-09T16:33:14.928Z,96392.91
2018-06-09T16:38:09.095Z,96389.97
2018-06-09T16:43:03.973Z,96415.02
2018-06-09T16:47:58.403Z,96410.42
2018-06-09T16:52:52.893Z,96420.31
2018-06-09T16:57:47.404Z,96421.27
2018-06-09T17:02:41.816Z,96423.84
2018-06-09T17:07:37.046Z,96431.68
2018-06-09T17:12:31.461Z,96432.50
2018-06-09T17:17:25.898Z,96431.73
2018-06-09T17:22:20.345Z,96431.06
2018-06-09T17:27:14.771Z,96442.23
2018-06-09T17:32:09.254Z,96443.45
2018-06-09T17:37:03.958Z,96452.66
2018-06-09T17:41:58.452Z,96458.77
2018-06-09T17:46:52.901Z,96461.72
2018-06-09T17:51:47.364Z,96472.91
2018-06-09T17:56:41.852Z,96474.78
2018-06-09T18:01:36.255Z,96462.41
2018-06-09T18:06:30.724Z,96465.68
2018-06-09T18:11:25.213Z,96471.05
2018-06-09T18:16:19.736Z,96468.22
2018-06-09T18:21:14.246Z,96455.85
2018-06-09T18:26:08.822Z,96460.48
2018-06-09T18:31:03.315Z,96458.89
2018-06-09T18:35:57.728Z,96457.94
2018-06-09T18:40:52.178Z,96461.66
2018-06-09T18:45:47.579Z,96469.74
2018-06-09T18:50:42.208Z,96480.49
2018-06-09T18:55:36.736Z,96479.44
2018-06-09T19:00:31.179Z,96469.22
2018-06-09T19:05:25.711Z,96468.61
2018-06-09T19:10:20.163Z,96482.63
2018-06-09T19:15:14.636Z,96480.42
2018-06-09T19:20:09.342Z,96489.66
2018-06-09T19:25:04.072Z,96498.32
2018-06-09T19:29:58.752Z,96497.52
2018-06-09T19:34:53.227Z,96508.71
2018-06-09T19:39:47.674Z,96507.23
2018-06-09T19:44:42.119Z,96512.17
2018-06-09T19:49:36.565Z,96519.77
2018-06-09T19:54:31.044Z,96527.27
2018-06-09T19:59:25.468Z,96527.05
2018-06-09T20:04:19.922Z,96543.43
2018-06-09T20:09:14.381Z,96553.47
2018-06-09T20:14:08.989Z,96557.70
2018-06-09T20:19:03.602Z,96566.48
2018-06-09T20:23:58.086Z,96581.33
2018-06-09T20:28:53.150Z,96602.89
2018-06-09T20:35:17.090Z,96596.89
2018-06-09T20:40:11.605Z,96602.45
2018-06-09T20:45:06.350Z,96610.22
2018-06-09T20:50:00.993Z,96614.81
2018-06-09T20:54:55.511Z,96616.38
2018-06-09T20:59:50.143Z,96620.48
2018-06-09T21:04:45.652Z,96622.27
2018-06-09T21:09:40.376Z,96622.06
2018-06-09T21:14:35.012Z,96614.05
2018-06-09T21:19:29.648Z,96623.87
2018-06-09T21:24:24.883Z,96625.34
2018-06-09T21:29:24.761Z,96633.93
2018-06-09T21:34:41.128Z,96628.14
2018-06-09T21:41:46.224Z,96635.70
2018-06-09T21:46:44.766Z,96636.16
2018-06-09T21:51:39.300Z,96640.00
2018-06-09T21:56:33.817Z,96642.53
2018-06-09T22:01:28.247Z,96651.41
2018-06-09T22:06:22.398Z,96654.28
2018-06-09T22:11:16.869Z,96641.73
2018-06-09T22:16:12.088Z,96637.88
2018-06-09T22:21:06.587Z,96633.45
2018-06-09T22:26:01.081Z,96636.75
2018-06-09T22:30:55.518Z,96644.70
2018-06-09T22:35:50.094Z,96653.52
2018-06-09T22:40:44.518Z,96650.84
2018-06-09T22:45:38.929Z,96662.94
2018-06-09T22:50:33.408Z,96667.84
2018-06-09T22:55:27.908Z,96662.60
2018-06-09T23:00:37.077Z,96657.02
2018-06-09T23:05:31.614Z,96663.30
2018-06-09T23:10:26.204Z,96660.50
2018-06-09T23:15:21.139Z,96661.97
2018-06-09T23:20:15.746Z,96657.97
2018-06-09T23:25:10.243Z,96662.01
2018-06-09T23:30:04.781Z,96668.58
2018-06-09T23:34:59.273Z,96667.36
2018-06-09T23:39:53.807Z,96661.89
2018-06-09T23:44:48.388Z,96659.00
2018-06-09T23:49:42.806Z,96654.67
2018-06-09T23:54:37.228Z,96646.20
2018-06-09T23:59:31.905Z,96644.84
